Aeroporto :
LOGIN :

Iscrizione | Disclaimer

   EN    FR    IT 

 










Sommario :    VFR   VFR Marginale   IFR   IFR Intensivo   IFR Molto Intensivo
Visibilità : 
Base nubi : 
>= 8 km
>= 3000ft
5 / 8 km
1000 / 3000 ft
1500m / 5 km
500 / 1000 ft
800 / 1500m
200 / 500 ft
< 800m
< 200 ft
Simboli :   Temporali  Nebbia  Neve Forte  Precipitazioni Forti  Vento > 20 kt
SIGMETs :   Varie  Temporali  Ghiacco  Turbolenza  Onda orograficha  Ceneri Vulcaniche






- Altitudine del aeroporto : 1234 ft
- Codice IATA : LUX


ELLX - Luxembourg Findel

ULTIMO METAR :
  • 281120Z 20006KT 5000 -DZ BKN003 06/06 Q1011 NOSIG

METARs OBSOLETI :
  • 281050Z 18005KT 150V210 9000 -DZ BKN004 06/06 Q1011 NOSIG
  • 281020Z 17005KT 140V220 9000 BKN003 06/05 Q1011 NOSIG
  • 280950Z 22003KT 190V260 9999 BKN004 06/05 Q1011 NOSIG
  • 280920Z 20005KT 9999 BKN006 06/05 Q1011 NOSIG
  • 280850Z 20005KT 9999 BKN007 05/05 Q1011 NOSIG

TAF TAF ELLX
Valido dal 28 a 12 ore il 29 a 18 ore UTC


281100Z 2812/2918 21006KT 9000 BKN007
TEMPO 2812/2821 4000 -RADZ BKN004
BECMG 2823/2901 25005KT 3000 BR BKN003
PROB40
TEMPO 2903/2909 0500 FG VV001
TEMPO 2909/2911 7000 BKN008
BECMG 2911/2913 31006KT 9999 BKN015
ATIS : +352 4798 27300
Met : +352 4798 27010 / 27050



MetMap, La meteo Aeronautica in un colpo d'occhio ! - Copyright ORBIFLY Dicembre 2007 - Disclaimer

ORBIFLY MET'MAP TEAM :

Programmazione e sviluppo : Alexandra Zaïnal
Concezione : Baudouin d'Aumeries
Supporto tecnico e logistico : Manuel Goepfert
Aiuto : Marc-Olivier Méhu
Aiuto per la traduzione : Arnaldo La Scala




FONTI E CREDITI :

   NOAA